sensor_id;sensor_type;location;lat;lon;timestamp;pressure;altitude;pressure_sealevel;temperature
68952;BMP180;56000;51.146;17.112;2022-12-18T00:02:10;101820.00;;;-4.50
68952;BMP180;56000;51.146;17.112;2022-12-18T00:04:43;101817.80;;;-4.58
68952;BMP180;56000;51.146;17.112;2022-12-18T00:07:15;101820.80;;;-4.58
68952;BMP180;56000;51.146;17.112;2022-12-18T00:09:49;101822.60;;;-4.52
68952;BMP180;56000;51.146;17.112;2022-12-18T00:12:22;101821.60;;;-4.50
68952;BMP180;56000;51.146;17.112;2022-12-18T00:14:54;101823.20;;;-4.50
68952;BMP180;56000;51.146;17.112;2022-12-18T00:17:27;101829.00;;;-4.50
68952;BMP180;56000;51.146;17.112;2022-12-18T00:20:00;101829.20;;;-4.50
68952;BMP180;56000;51.146;17.112;2022-12-18T00:22:33;101832.60;;;-4.50
68952;BMP180;56000;51.146;17.112;2022-12-18T00:25:07;101832.00;;;-4.50
68952;BMP180;56000;51.146;17.112;2022-12-18T00:27:40;101834.00;;;-4.50
68952;BMP180;56000;51.146;17.112;2022-12-18T00:30:14;101835.00;;;-4.50
68952;BMP180;56000;51.146;17.112;2022-12-18T00:32:48;101833.00;;;-4.50
68952;BMP180;56000;51.146;17.112;2022-12-18T00:35:21;101834.80;;;-4.50
68952;BMP180;56000;51.146;17.112;2022-12-18T00:37:54;101845.40;;;-4.50
68952;BMP180;56000;51.146;17.112;2022-12-18T00:40:27;101846.60;;;-4.50
68952;BMP180;56000;51.146;17.112;2022-12-18T00:43:00;101856.60;;;-4.50
68952;BMP180;56000;51.146;17.112;2022-12-18T00:45:33;101857.60;;;-4.50
68952;BMP180;56000;51.146;17.112;2022-12-18T00:48:06;101859.40;;;-4.50
68952;BMP180;56000;51.146;17.112;2022-12-18T00:50:39;101860.20;;;-4.50
68952;BMP180;56000;51.146;17.112;2022-12-18T00:53:12;101865.00;;;-4.50
68952;BMP180;56000;51.146;17.112;2022-12-18T00:55:46;101875.60;;;-4.50
68952;BMP180;56000;51.146;17.112;2022-12-18T00:58:19;101872.20;;;-4.48
68952;BMP180;56000;51.146;17.112;2022-12-18T01:00:52;101881.40;;;-4.40
68952;BMP180;56000;51.146;17.112;2022-12-18T01:03:25;101892.40;;;-4.40
68952;BMP180;56000;51.146;17.112;2022-12-18T01:05:58;101895.80;;;-4.40
68952;BMP180;56000;51.146;17.112;2022-12-18T01:08:31;101895.60;;;-4.40
68952;BMP180;56000;51.146;17.112;2022-12-18T01:11:08;101904.80;;;-4.40
68952;BMP180;56000;51.146;17.112;2022-12-18T01:13:42;101905.00;;;-4.40
68952;BMP180;56000;51.146;17.112;2022-12-18T01:16:16;101906.80;;;-4.46
68952;BMP180;56000;51.146;17.112;2022-12-18T01:18:53;101908.40;;;-4.40
68952;BMP180;56000;51.146;17.112;2022-12-18T01:21:26;101913.80;;;-4.40
68952;BMP180;56000;51.146;17.112;2022-12-18T01:23:59;101913.40;;;-4.40
68952;BMP180;56000;51.146;17.112;2022-12-18T01:26:33;101917.40;;;-4.40
68952;BMP180;56000;51.146;17.112;2022-12-18T01:29:06;101917.80;;;-4.40
68952;BMP180;56000;51.146;17.112;2022-12-18T01:31:39;101918.20;;;-4.40
68952;BMP180;56000;51.146;17.112;2022-12-18T01:34:12;101917.20;;;-4.40
68952;BMP180;56000;51.146;17.112;2022-12-18T01:36:45;101918.00;;;-4.38
68952;BMP180;56000;51.146;17.112;2022-12-18T01:39:18;101923.80;;;-4.30
68952;BMP180;56000;51.146;17.112;2022-12-18T01:41:51;101924.60;;;-4.30
68952;BMP180;56000;51.146;17.112;2022-12-18T01:44:57;101925.20;;;-4.30
68952;BMP180;56000;51.146;17.112;2022-12-18T01:47:40;101925.80;;;-4.22
68952;BMP180;56000;51.146;17.112;2022-12-18T01:50:19;101927.00;;;-4.20
68952;BMP180;56000;51.146;17.112;2022-12-18T01:52:56;101927.20;;;-4.20
68952;BMP180;56000;51.146;17.112;2022-12-18T01:55:35;101920.20;;;-4.20
68952;BMP180;56000;51.146;17.112;2022-12-18T01:58:09;101924.40;;;-4.12
68952;BMP180;56000;51.146;17.112;2022-12-18T02:00:42;101930.40;;;-4.10
68952;BMP180;56000;51.146;17.112;2022-12-18T02:03:16;101932.40;;;-4.10
68952;BMP180;56000;51.146;17.112;2022-12-18T02:05:56;101937.40;;;-4.10
68952;BMP180;56000;51.146;17.112;2022-12-18T02:08:36;101932.60;;;-4.00
68952;BMP180;56000;51.146;17.112;2022-12-18T02:11:17;101929.60;;;-4.00
68952;BMP180;56000;51.146;17.112;2022-12-18T02:14:00;101925.80;;;-4.00
68952;BMP180;56000;51.146;17.112;2022-12-18T02:16:42;101932.60;;;-3.98
68952;BMP180;56000;51.146;17.112;2022-12-18T02:19:42;101932.00;;;-3.90
68952;BMP180;56000;51.146;17.112;2022-12-18T02:22:29;101936.60;;;-3.90
68952;BMP180;56000;51.146;17.112;2022-12-18T02:25:24;101942.00;;;-3.90
68952;BMP180;56000;51.146;17.112;2022-12-18T02:28:04;101945.00;;;-3.88
68952;BMP180;56000;51.146;17.112;2022-12-18T02:30:40;101945.80;;;-3.80
68952;BMP180;56000;51.146;17.112;2022-12-18T02:33:15;101946.00;;;-3.80
68952;BMP180;56000;51.146;17.112;2022-12-18T02:35:49;101950.60;;;-3.80
68952;BMP180;56000;51.146;17.112;2022-12-18T02:38:24;101953.80;;;-3.80
68952;BMP180;56000;51.146;17.112;2022-12-18T02:40:58;101962.20;;;-3.80
68952;BMP180;56000;51.146;17.112;2022-12-18T02:43:32;101962.20;;;-3.80
68952;BMP180;56000;51.146;17.112;2022-12-18T02:46:34;101960.80;;;-3.80
68952;BMP180;56000;51.146;17.112;2022-12-18T02:49:24;101959.40;;;-3.80
68952;BMP180;56000;51.146;17.112;2022-12-18T02:52:09;101958.60;;;-3.80
68952;BMP180;56000;51.146;17.112;2022-12-18T02:54:55;101955.60;;;-3.80
68952;BMP180;56000;51.146;17.112;2022-12-18T02:57:40;101953.20;;;-3.78
68952;BMP180;56000;51.146;17.112;2022-12-18T03:00:18;101957.20;;;-3.70
68952;BMP180;56000;51.146;17.112;2022-12-18T03:02:58;101962.40;;;-3.70
68952;BMP180;56000;51.146;17.112;2022-12-18T03:05:38;101962.20;;;-3.70
68952;BMP180;56000;51.146;17.112;2022-12-18T03:08:19;101969.00;;;-3.70
68952;BMP180;56000;51.146;17.112;2022-12-18T03:10:57;101962.20;;;-3.70
68952;BMP180;56000;51.146;17.112;2022-12-18T03:13:36;101964.00;;;-3.70
68952;BMP180;56000;51.146;17.112;2022-12-18T03:16:14;101959.60;;;-3.70
68952;BMP180;56000;51.146;17.112;2022-12-18T03:18:51;101966.20;;;-3.66
68952;BMP180;56000;51.146;17.112;2022-12-18T03:21:32;101973.00;;;-3.70
68952;BMP180;56000;51.146;17.112;2022-12-18T03:24:09;101975.20;;;-3.70
68952;BMP180;56000;51.146;17.112;2022-12-18T03:26:46;101981.40;;;-3.70
68952;BMP180;56000;51.146;17.112;2022-12-18T03:29:24;101981.20;;;-3.70
68952;BMP180;56000;51.146;17.112;2022-12-18T03:32:11;101976.20;;;-3.70
68952;BMP180;56000;51.146;17.112;2022-12-18T03:34:48;101982.20;;;-3.66
68952;BMP180;56000;51.146;17.112;2022-12-18T03:37:23;101981.60;;;-3.68
68952;BMP180;56000;51.146;17.112;2022-12-18T03:39:56;101983.40;;;-3.64
68952;BMP180;56000;51.146;17.112;2022-12-18T03:42:35;101981.40;;;-3.60
68952;BMP180;56000;51.146;17.112;2022-12-18T03:45:22;101984.00;;;-3.60
68952;BMP180;56000;51.146;17.112;2022-12-18T03:48:03;101982.60;;;-3.60
68952;BMP180;56000;51.146;17.112;2022-12-18T03:50:46;101979.40;;;-3.58
68952;BMP180;56000;51.146;17.112;2022-12-18T03:53:31;101978.60;;;-3.52
68952;BMP180;56000;51.146;17.112;2022-12-18T03:56:06;101987.80;;;-3.50
68952;BMP180;56000;51.146;17.112;2022-12-18T03:58:43;101991.00;;;-3.50
68952;BMP180;56000;51.146;17.112;2022-12-18T04:01:28;101992.80;;;-3.50
68952;BMP180;56000;51.146;17.112;2022-12-18T04:04:04;102000.20;;;-3.50
68952;BMP180;56000;51.146;17.112;2022-12-18T04:06:40;101997.00;;;-3.50
68952;BMP180;56000;51.146;17.112;2022-12-18T04:09:14;101998.60;;;-3.50
68952;BMP180;56000;51.146;17.112;2022-12-18T04:11:50;102000.80;;;-3.40
68952;BMP180;56000;51.146;17.112;2022-12-18T04:14:24;102000.00;;;-3.40
68952;BMP180;56000;51.146;17.112;2022-12-18T04:16:59;101998.00;;;-3.40
68952;BMP180;56000;51.146;17.112;2022-12-18T04:19:34;102006.00;;;-3.40
68952;BMP180;56000;51.146;17.112;2022-12-18T04:22:08;102010.20;;;-3.38
68952;BMP180;56000;51.146;17.112;2022-12-18T04:24:46;102010.80;;;-3.30
68952;BMP180;56000;51.146;17.112;2022-12-18T04:27:25;102013.80;;;-3.30
68952;BMP180;56000;51.146;17.112;2022-12-18T04:29:59;102026.40;;;-3.30
68952;BMP180;56000;51.146;17.112;2022-12-18T04:32:34;102026.80;;;-3.30
68952;BMP180;56000;51.146;17.112;2022-12-18T04:35:08;102027.80;;;-3.30
68952;BMP180;56000;51.146;17.112;2022-12-18T04:37:45;102026.40;;;-3.36
68952;BMP180;56000;51.146;17.112;2022-12-18T04:40:19;102029.20;;;-3.40
68952;BMP180;56000;51.146;17.112;2022-12-18T04:42:52;102029.00;;;-3.40
68952;BMP180;56000;51.146;17.112;2022-12-18T04:45:25;102036.80;;;-3.40
68952;BMP180;56000;51.146;17.112;2022-12-18T04:47:59;102044.20;;;-3.44
68952;BMP180;56000;51.146;17.112;2022-12-18T04:50:32;102047.60;;;-3.44
68952;BMP180;56000;51.146;17.112;2022-12-18T04:53:05;102049.40;;;-3.46
68952;BMP180;56000;51.146;17.112;2022-12-18T04:55:38;102051.40;;;-3.44
68952;BMP180;56000;51.146;17.112;2022-12-18T04:58:11;102055.00;;;-3.44
68952;BMP180;56000;51.146;17.112;2022-12-18T05:00:44;102065.80;;;-3.48
68952;BMP180;56000;51.146;17.112;2022-12-18T05:03:17;102061.00;;;-3.50
68952;BMP180;56000;51.146;17.112;2022-12-18T05:05:53;102061.80;;;-3.40
68952;BMP180;56000;51.146;17.112;2022-12-18T05:08:26;102057.40;;;-3.40
68952;BMP180;56000;51.146;17.112;2022-12-18T05:11:04;102066.60;;;-3.40
68952;BMP180;56000;51.146;17.112;2022-12-18T05:13:38;102070.80;;;-3.40
68952;BMP180;56000;51.146;17.112;2022-12-18T05:16:12;102068.80;;;-3.40
68952;BMP180;56000;51.146;17.112;2022-12-18T05:18:46;102063.40;;;-3.40
68952;BMP180;56000;51.146;17.112;2022-12-18T05:21:18;102061.00;;;-3.40
68952;BMP180;56000;51.146;17.112;2022-12-18T05:23:51;102060.40;;;-3.50
68952;BMP180;56000;51.146;17.112;2022-12-18T05:26:24;102063.40;;;-3.50
68952;BMP180;56000;51.146;17.112;2022-12-18T05:28:57;102068.00;;;-3.50
68952;BMP180;56000;51.146;17.112;2022-12-18T05:31:30;102070.60;;;-3.50
68952;BMP180;56000;51.146;17.112;2022-12-18T05:34:10;102070.80;;;-3.50
68952;BMP180;56000;51.146;17.112;2022-12-18T05:36:46;102075.40;;;-3.50
68952;BMP180;56000;51.146;17.112;2022-12-18T05:39:19;102074.40;;;-3.50
68952;BMP180;56000;51.146;17.112;2022-12-18T05:41:52;102072.20;;;-3.50
68952;BMP180;56000;51.146;17.112;2022-12-18T05:44:25;102076.20;;;-3.50
68952;BMP180;56000;51.146;17.112;2022-12-18T05:46:58;102071.00;;;-3.50
68952;BMP180;56000;51.146;17.112;2022-12-18T05:49:31;102074.60;;;-3.50
68952;BMP180;56000;51.146;17.112;2022-12-18T05:52:04;102076.40;;;-3.50
68952;BMP180;56000;51.146;17.112;2022-12-18T05:54:37;102085.80;;;-3.50
68952;BMP180;56000;51.146;17.112;2022-12-18T05:57:10;102094.80;;;-3.58
68952;BMP180;56000;51.146;17.112;2022-12-18T05:59:43;102101.20;;;-3.60
68952;BMP180;56000;51.146;17.112;2022-12-18T06:02:16;102114.00;;;-3.60
68952;BMP180;56000;51.146;17.112;2022-12-18T06:04:50;102115.00;;;-3.70
68952;BMP180;56000;51.146;17.112;2022-12-18T06:07:22;102119.80;;;-3.80
68952;BMP180;56000;51.146;17.112;2022-12-18T06:09:55;102121.40;;;-3.80
68952;BMP180;56000;51.146;17.112;2022-12-18T06:12:28;102127.00;;;-3.84
68952;BMP180;56000;51.146;17.112;2022-12-18T06:15:01;102119.60;;;-3.90
68952;BMP180;56000;51.146;17.112;2022-12-18T06:17:35;102128.00;;;-3.90
68952;BMP180;56000;51.146;17.112;2022-12-18T06:20:10;102130.20;;;-3.90
68952;BMP180;56000;51.146;17.112;2022-12-18T06:22:43;102137.20;;;-3.90
68952;BMP180;56000;51.146;17.112;2022-12-18T06:25:16;102144.00;;;-3.90
68952;BMP180;56000;51.146;17.112;2022-12-18T06:27:49;102139.80;;;-3.90
68952;BMP180;56000;51.146;17.112;2022-12-18T06:30:23;102148.80;;;-3.90
68952;BMP180;56000;51.146;17.112;2022-12-18T06:32:55;102149.00;;;-3.90
68952;BMP180;56000;51.146;17.112;2022-12-18T06:35:29;102152.20;;;-3.84
68952;BMP180;56000;51.146;17.112;2022-12-18T06:38:04;102151.00;;;-3.84
68952;BMP180;56000;51.146;17.112;2022-12-18T06:40:38;102155.60;;;-3.90
68952;BMP180;56000;51.146;17.112;2022-12-18T06:43:11;102160.80;;;-3.88
68952;BMP180;56000;51.146;17.112;2022-12-18T06:45:44;102161.20;;;-3.86
68952;BMP180;56000;51.146;17.112;2022-12-18T06:48:21;102172.80;;;-3.90
68952;BMP180;56000;51.146;17.112;2022-12-18T06:50:54;102173.80;;;-3.90
68952;BMP180;56000;51.146;17.112;2022-12-18T06:53:27;102171.20;;;-3.90
68952;BMP180;56000;51.146;17.112;2022-12-18T06:56:06;102172.40;;;-3.90
68952;BMP180;56000;51.146;17.112;2022-12-18T06:58:41;102175.40;;;-3.90
68952;BMP180;56000;51.146;17.112;2022-12-18T07:01:14;102187.00;;;-3.90
68952;BMP180;56000;51.146;17.112;2022-12-18T07:03:50;102182.20;;;-3.90
68952;BMP180;56000;51.146;17.112;2022-12-18T07:06:26;102185.00;;;-3.90
68952;BMP180;56000;51.146;17.112;2022-12-18T07:08:59;102176.80;;;-3.80
68952;BMP180;56000;51.146;17.112;2022-12-18T07:11:33;102183.00;;;-3.80
68952;BMP180;56000;51.146;17.112;2022-12-18T07:14:06;102189.00;;;-3.74
68952;BMP180;56000;51.146;17.112;2022-12-18T07:16:39;102191.80;;;-3.70
68952;BMP180;56000;51.146;17.112;2022-12-18T07:19:12;102194.60;;;-3.70
68952;BMP180;56000;51.146;17.112;2022-12-18T07:21:45;102198.80;;;-3.70
68952;BMP180;56000;51.146;17.112;2022-12-18T07:24:18;102193.40;;;-3.70
68952;BMP180;56000;51.146;17.112;2022-12-18T07:26:51;102198.60;;;-3.70
68952;BMP180;56000;51.146;17.112;2022-12-18T07:29:24;102198.80;;;-3.70
68952;BMP180;56000;51.146;17.112;2022-12-18T07:31:57;102203.00;;;-3.70
68952;BMP180;56000;51.146;17.112;2022-12-18T07:34:30;102205.40;;;-3.66
68952;BMP180;56000;51.146;17.112;2022-12-18T07:37:03;102207.60;;;-3.70
68952;BMP180;56000;51.146;17.112;2022-12-18T07:39:37;102209.40;;;-3.70
68952;BMP180;56000;51.146;17.112;2022-12-18T07:42:10;102215.80;;;-3.70
68952;BMP180;56000;51.146;17.112;2022-12-18T07:44:58;102224.20;;;-3.70
68952;BMP180;56000;51.146;17.112;2022-12-18T07:47:37;102232.20;;;-3.70
68952;BMP180;56000;51.146;17.112;2022-12-18T07:50:10;102227.40;;;-3.70
68952;BMP180;56000;51.146;17.112;2022-12-18T07:52:44;102224.20;;;-3.70
68952;BMP180;56000;51.146;17.112;2022-12-18T07:55:18;102227.00;;;-3.60
68952;BMP180;56000;51.146;17.112;2022-12-18T07:57:50;102223.40;;;-3.60
68952;BMP180;56000;51.146;17.112;2022-12-18T08:00:31;102217.00;;;-3.60
68952;BMP180;56000;51.146;17.112;2022-12-18T08:03:05;102224.60;;;-3.50
68952;BMP180;56000;51.146;17.112;2022-12-18T08:05:38;102224.60;;;-3.50
68952;BMP180;56000;51.146;17.112;2022-12-18T08:08:11;102228.40;;;-3.50
68952;BMP180;56000;51.146;17.112;2022-12-18T08:10:43;102235.80;;;-3.50
68952;BMP180;56000;51.146;17.112;2022-12-18T08:13:16;102244.20;;;-3.50
68952;BMP180;56000;51.146;17.112;2022-12-18T08:15:56;102242.00;;;-3.40
68952;BMP180;56000;51.146;17.112;2022-12-18T08:18:28;102248.60;;;-3.40
68952;BMP180;56000;51.146;17.112;2022-12-18T08:21:11;102254.80;;;-3.30
68952;BMP180;56000;51.146;17.112;2022-12-18T08:23:44;102254.60;;;-3.30
68952;BMP180;56000;51.146;17.112;2022-12-18T08:26:19;102252.20;;;-3.30
68952;BMP180;56000;51.146;17.112;2022-12-18T08:28:53;102258.80;;;-3.30
68952;BMP180;56000;51.146;17.112;2022-12-18T08:31:28;102261.20;;;-3.30
68952;BMP180;56000;51.146;17.112;2022-12-18T08:34:02;102262.60;;;-3.22
68952;BMP180;56000;51.146;17.112;2022-12-18T08:36:35;102271.00;;;-3.24
68952;BMP180;56000;51.146;17.112;2022-12-18T08:39:08;102273.60;;;-3.20
68952;BMP180;56000;51.146;17.112;2022-12-18T08:41:41;102280.20;;;-3.22
68952;BMP180;56000;51.146;17.112;2022-12-18T08:44:14;102282.80;;;-3.24
68952;BMP180;56000;51.146;17.112;2022-12-18T08:47:04;102279.40;;;-3.20
68952;BMP180;56000;51.146;17.112;2022-12-18T08:49:38;102284.80;;;-3.14
68952;BMP180;56000;51.146;17.112;2022-12-18T08:52:11;102288.20;;;-3.10
68952;BMP180;56000;51.146;17.112;2022-12-18T08:54:44;102288.80;;;-3.18
68952;BMP180;56000;51.146;17.112;2022-12-18T08:57:17;102295.00;;;-3.10
68952;BMP180;56000;51.146;17.112;2022-12-18T08:59:49;102294.00;;;-3.10
68952;BMP180;56000;51.146;17.112;2022-12-18T09:02:22;102289.20;;;-3.10
68952;BMP180;56000;51.146;17.112;2022-12-18T09:04:55;102288.00;;;-3.10
68952;BMP180;56000;51.146;17.112;2022-12-18T09:07:29;102282.20;;;-3.10
68952;BMP180;56000;51.146;17.112;2022-12-18T09:10:02;102284.40;;;-3.10
68952;BMP180;56000;51.146;17.112;2022-12-18T09:12:35;102287.20;;;-3.00
68952;BMP180;56000;51.146;17.112;2022-12-18T09:15:10;102284.20;;;-3.00
68952;BMP180;56000;51.146;17.112;2022-12-18T09:17:43;102279.00;;;-2.90
68952;BMP180;56000;51.146;17.112;2022-12-18T09:20:16;102258.60;;;-2.90
68952;BMP180;56000;51.146;17.112;2022-12-18T09:22:49;102256.80;;;-2.84
68952;BMP180;56000;51.146;17.112;2022-12-18T09:25:22;102253.00;;;-2.80
68952;BMP180;56000;51.146;17.112;2022-12-18T09:27:55;102253.00;;;-2.70
68952;BMP180;56000;51.146;17.112;2022-12-18T09:30:28;102244.20;;;-2.60
68952;BMP180;56000;51.146;17.112;2022-12-18T09:33:02;102242.00;;;-2.36
68952;BMP180;56000;51.146;17.112;2022-12-18T09:35:38;102236.80;;;-2.06
68952;BMP180;56000;51.146;17.112;2022-12-18T09:38:14;102234.40;;;-1.88
68952;BMP180;56000;51.146;17.112;2022-12-18T09:40:50;102229.40;;;-2.00
68952;BMP180;56000;51.146;17.112;2022-12-18T09:43:28;102224.20;;;-2.10
68952;BMP180;56000;51.146;17.112;2022-12-18T09:46:05;102215.80;;;-2.00
68952;BMP180;56000;51.146;17.112;2022-12-18T09:48:42;102215.20;;;-1.70
68952;BMP180;56000;51.146;17.112;2022-12-18T09:51:20;102222.40;;;-1.70
68952;BMP180;56000;51.146;17.112;2022-12-18T09:54:04;102216.80;;;-1.60
68952;BMP180;56000;51.146;17.112;2022-12-18T09:56:42;102216.80;;;-1.40
68952;BMP180;56000;51.146;17.112;2022-12-18T09:59:24;102208.20;;;-1.00
68952;BMP180;56000;51.146;17.112;2022-12-18T10:01:59;102210.00;;;-0.80
68952;BMP180;56000;51.146;17.112;2022-12-18T10:04:32;102215.80;;;-0.70
68952;BMP180;56000;51.146;17.112;2022-12-18T10:07:12;102214.80;;;-0.70
68952;BMP180;56000;51.146;17.112;2022-12-18T10:09:53;102215.00;;;-1.00
68952;BMP180;56000;51.146;17.112;2022-12-18T10:12:34;102214.80;;;-1.28
68952;BMP180;56000;51.146;17.112;2022-12-18T10:15:18;102220.40;;;-1.50
68952;BMP180;56000;51.146;17.112;2022-12-18T10:17:58;102223.60;;;-1.80
68952;BMP180;56000;51.146;17.112;2022-12-18T10:20:41;102227.80;;;-1.90
68952;BMP180;56000;51.146;17.112;2022-12-18T10:23:23;102229.00;;;-1.94
68952;BMP180;56000;51.146;17.112;2022-12-18T10:26:03;102231.60;;;-1.90
68952;BMP180;56000;51.146;17.112;2022-12-18T10:28:40;102224.80;;;-1.88
68952;BMP180;56000;51.146;17.112;2022-12-18T10:31:20;102234.60;;;-1.80
68952;BMP180;56000;51.146;17.112;2022-12-18T10:33:56;102234.60;;;-1.80
68952;BMP180;56000;51.146;17.112;2022-12-18T10:36:29;102231.20;;;-1.90
68952;BMP180;56000;51.146;17.112;2022-12-18T10:39:16;102223.40;;;-2.00
68952;BMP180;56000;51.146;17.112;2022-12-18T10:42:11;102227.00;;;-2.00
68952;BMP180;56000;51.146;17.112;2022-12-18T10:44:44;102228.40;;;-2.10
68952;BMP180;56000;51.146;17.112;2022-12-18T10:47:19;102228.40;;;-2.10
68952;BMP180;56000;51.146;17.112;2022-12-18T10:49:55;102233.00;;;-2.10
68952;BMP180;56000;51.146;17.112;2022-12-18T10:52:28;102228.80;;;-2.10
68952;BMP180;56000;51.146;17.112;2022-12-18T10:55:04;102231.00;;;-2.10
68952;BMP180;56000;51.146;17.112;2022-12-18T10:57:39;102230.40;;;-2.10
68952;BMP180;56000;51.146;17.112;2022-12-18T11:00:31;102230.80;;;-2.20
68952;BMP180;56000;51.146;17.112;2022-12-18T11:03:31;102238.40;;;-2.24
68952;BMP180;56000;51.146;17.112;2022-12-18T11:06:10;102241.20;;;-2.38
68952;BMP180;56000;51.146;17.112;2022-12-18T11:08:46;102241.80;;;-2.40
68952;BMP180;56000;51.146;17.112;2022-12-18T11:11:30;102238.40;;;-2.40
68952;BMP180;56000;51.146;17.112;2022-12-18T11:14:06;102239.80;;;-2.26
68952;BMP180;56000;51.146;17.112;2022-12-18T11:16:47;102249.60;;;-2.20
68952;BMP180;56000;51.146;17.112;2022-12-18T11:19:42;102250.40;;;-2.10
68952;BMP180;56000;51.146;17.112;2022-12-18T11:22:25;102253.60;;;-2.10
68952;BMP180;56000;51.146;17.112;2022-12-18T11:25:03;102258.00;;;-2.00
68952;BMP180;56000;51.146;17.112;2022-12-18T11:28:01;102258.80;;;-2.00
68952;BMP180;56000;51.146;17.112;2022-12-18T11:30:36;102264.60;;;-2.00
68952;BMP180;56000;51.146;17.112;2022-12-18T11:33:14;102267.00;;;-2.00
68952;BMP180;56000;51.146;17.112;2022-12-18T11:35:52;102265.00;;;-2.10
68952;BMP180;56000;51.146;17.112;2022-12-18T11:38:28;102257.40;;;-2.10
68952;BMP180;56000;51.146;17.112;2022-12-18T11:41:07;102257.60;;;-2.10
68952;BMP180;56000;51.146;17.112;2022-12-18T11:43:52;102257.00;;;-2.04
68952;BMP180;56000;51.146;17.112;2022-12-18T11:46:32;102251.40;;;-1.92
68952;BMP180;56000;51.146;17.112;2022-12-18T11:49:11;102253.60;;;-1.98
68952;BMP180;56000;51.146;17.112;2022-12-18T11:51:51;102249.00;;;-1.90
68952;BMP180;56000;51.146;17.112;2022-12-18T11:54:27;102229.40;;;-1.80
68952;BMP180;56000;51.146;17.112;2022-12-18T11:57:07;102227.20;;;-1.80
68952;BMP180;56000;51.146;17.112;2022-12-18T11:59:50;102232.00;;;-1.80
68952;BMP180;56000;51.146;17.112;2022-12-18T12:02:49;102231.00;;;-1.80
68952;BMP180;56000;51.146;17.112;2022-12-18T12:05:42;102232.80;;;-1.82
68952;BMP180;56000;51.146;17.112;2022-12-18T12:08:28;102237.60;;;-1.92
68952;BMP180;56000;51.146;17.112;2022-12-18T12:11:10;102238.20;;;-2.00
68952;BMP180;56000;51.146;17.112;2022-12-18T12:13:58;102236.40;;;-2.06
68952;BMP180;56000;51.146;17.112;2022-12-18T12:16:41;102230.60;;;-2.10
68952;BMP180;56000;51.146;17.112;2022-12-18T12:19:31;102229.00;;;-2.20
68952;BMP180;56000;51.146;17.112;2022-12-18T12:22:13;102227.60;;;-2.20
68952;BMP180;56000;51.146;17.112;2022-12-18T12:25:07;102231.00;;;-2.12
68952;BMP180;56000;51.146;17.112;2022-12-18T12:27:57;102234.20;;;-2.10
68952;BMP180;56000;51.146;17.112;2022-12-18T12:30:39;102230.20;;;-2.00
68952;BMP180;56000;51.146;17.112;2022-12-18T12:33:26;102223.40;;;-2.00
68952;BMP180;56000;51.146;17.112;2022-12-18T12:36:10;102218.80;;;-1.90
68952;BMP180;56000;51.146;17.112;2022-12-18T12:38:49;102224.40;;;-1.88
68952;BMP180;56000;51.146;17.112;2022-12-18T12:41:25;102222.20;;;-1.80
68952;BMP180;56000;51.146;17.112;2022-12-18T12:44:22;102224.60;;;-1.70
68952;BMP180;56000;51.146;17.112;2022-12-18T12:47:01;102221.60;;;-1.60
68952;BMP180;56000;51.146;17.112;2022-12-18T12:49:39;102221.20;;;-1.60
68952;BMP180;56000;51.146;17.112;2022-12-18T12:52:28;102226.80;;;-1.70
68952;BMP180;56000;51.146;17.112;2022-12-18T12:55:04;102221.80;;;-1.90
68952;BMP180;56000;51.146;17.112;2022-12-18T12:57:48;102226.40;;;-2.00
68952;BMP180;56000;51.146;17.112;2022-12-18T13:00:24;102227.60;;;-2.00
68952;BMP180;56000;51.146;17.112;2022-12-18T13:03:04;102226.60;;;-2.16
68952;BMP180;56000;51.146;17.112;2022-12-18T13:05:48;102230.60;;;-2.20
68952;BMP180;56000;51.146;17.112;2022-12-18T13:08:30;102230.20;;;-2.20
68952;BMP180;56000;51.146;17.112;2022-12-18T13:11:37;102225.80;;;-2.20
68952;BMP180;56000;51.146;17.112;2022-12-18T13:14:34;102231.40;;;-2.30
68952;BMP180;56000;51.146;17.112;2022-12-18T13:17:30;102228.80;;;-2.30
68952;BMP180;56000;51.146;17.112;2022-12-18T13:20:13;102231.40;;;-2.40
68952;BMP180;56000;51.146;17.112;2022-12-18T13:22:49;102224.00;;;-2.30
68952;BMP180;56000;51.146;17.112;2022-12-18T13:25:39;102223.40;;;-2.30
68952;BMP180;56000;51.146;17.112;2022-12-18T13:28:16;102232.20;;;-2.42
68952;BMP180;56000;51.146;17.112;2022-12-18T13:30:59;102229.20;;;-2.50
68952;BMP180;56000;51.146;17.112;2022-12-18T13:33:52;102226.80;;;-2.60
68952;BMP180;56000;51.146;17.112;2022-12-18T13:39:51;102229.80;;;-2.70
68952;BMP180;56000;51.146;17.112;2022-12-18T13:42:43;102238.20;;;-2.80
68952;BMP180;56000;51.146;17.112;2022-12-18T13:45:58;102248.40;;;-2.90
68952;BMP180;56000;51.146;17.112;2022-12-18T13:48:34;102246.80;;;-3.00
68952;BMP180;56000;51.146;17.112;2022-12-18T13:51:10;102252.60;;;-3.00
68952;BMP180;56000;51.146;17.112;2022-12-18T13:53:48;102260.00;;;-3.00
68952;BMP180;56000;51.146;17.112;2022-12-18T13:56:27;102262.20;;;-3.10
68952;BMP180;56000;51.146;17.112;2022-12-18T13:59:21;102259.40;;;-3.10
68952;BMP180;56000;51.146;17.112;2022-12-18T14:01:58;102265.80;;;-3.20
68952;BMP180;56000;51.146;17.112;2022-12-18T14:04:35;102268.80;;;-3.30
68952;BMP180;56000;51.146;17.112;2022-12-18T14:07:12;102270.80;;;-3.40
68952;BMP180;56000;51.146;17.112;2022-12-18T14:09:50;102265.80;;;-3.50
68952;BMP180;56000;51.146;17.112;2022-12-18T14:12:46;102272.40;;;-3.56
68952;BMP180;56000;51.146;17.112;2022-12-18T14:15:38;102282.00;;;-3.60
68952;BMP180;56000;51.146;17.112;2022-12-18T14:18:21;102281.60;;;-3.70
68952;BMP180;56000;51.146;17.112;2022-12-18T14:20:58;102294.40;;;-3.78
68952;BMP180;56000;51.146;17.112;2022-12-18T14:23:36;102292.80;;;-3.80
68952;BMP180;56000;51.146;17.112;2022-12-18T14:26:26;102300.20;;;-3.90
68952;BMP180;56000;51.146;17.112;2022-12-18T14:29:19;102293.20;;;-3.90
68952;BMP180;56000;51.146;17.112;2022-12-18T14:32:12;102290.20;;;-4.00
68952;BMP180;56000;51.146;17.112;2022-12-18T14:34:51;102294.40;;;-4.10
68952;BMP180;56000;51.146;17.112;2022-12-18T14:37:26;102300.60;;;-4.20
68952;BMP180;56000;51.146;17.112;2022-12-18T14:40:02;102313.60;;;-4.20
68952;BMP180;56000;51.146;17.112;2022-12-18T14:42:41;102315.20;;;-4.20
68952;BMP180;56000;51.146;17.112;2022-12-18T14:45:41;102312.40;;;-4.30
68952;BMP180;56000;51.146;17.112;2022-12-18T14:48:17;102310.80;;;-4.30